EFW45L EGKK-LFBD
Flight info
| Callsign | EFW45L |
|---|---|
| Flight time | 1h 14m |
| Altitude | 33000 |
| Route | SFD Y47 BENBO UY47 DRAKE L151 SITET UN859 SOPIL DCT BALAN DCT LMG |
| Aircraft | A321/M-SDE3FGHIRWY/LB1 |
Departure
| Time | 2026-05-07 20:22 |
|---|---|
| Airport | London Gatwick Airport (EGKK) |
Arrival
| Time | 2026-05-07 21:36 |
|---|---|
| Airport | Bordeaux–Mérignac Airport (LFBD) |
| Time | Latitude | Longitude | Altitude | Speed | Heading |
|---|---|---|---|---|---|
| 2026-05-07 19:34 | 51.15876 | -0.16928 | 217 ft | 0 kts | 129° |
| 2026-05-07 19:58 | 51.15888 | -0.16952 | 215 ft | 4 kts | 127° |
| 2026-05-07 19:58 | 51.15903 | -0.16983 | 212 ft | 2 kts | 130° |
| 2026-05-07 19:59 | 51.15921 | -0.17008 | 215 ft | 4 kts | 167° |
| 2026-05-07 19:59 | 51.15942 | -0.17002 | 215 ft | 4 kts | 226° |
| 2026-05-07 19:59 | 51.15958 | -0.16968 | 211 ft | 4 kts | 240° |
| 2026-05-07 19:59 | 51.15969 | -0.16930 | 213 ft | 4 kts | 252° |
| 2026-05-07 20:00 | 51.15976 | -0.16894 | 205 ft | 1 kts | 258° |
| 2026-05-07 20:00 | 51.15976 | -0.16893 | 205 ft | 0 kts | 258° |
| 2026-05-07 20:02 | 51.15973 | -0.16910 | 212 ft | 4 kts | 256° |
| 2026-05-07 20:02 | 51.15958 | -0.16966 | 209 ft | 9 kts | 241° |
| 2026-05-07 20:03 | 51.15904 | -0.17052 | 209 ft | 12 kts | 211° |
| 2026-05-07 20:03 | 51.15829 | -0.17094 | 212 ft | 11 kts | 213° |
| 2026-05-07 20:03 | 51.15803 | -0.17211 | 215 ft | 12 kts | 258° |
| 2026-05-07 20:03 | 51.15784 | -0.17350 | 205 ft | 11 kts | 257° |
| 2026-05-07 20:04 | 51.15780 | -0.17378 | 208 ft | 0 kts | 257° |
| 2026-05-07 20:04 | 51.15777 | -0.17399 | 215 ft | 8 kts | 257° |
| 2026-05-07 20:04 | 51.15761 | -0.17515 | 215 ft | 13 kts | 257° |
| 2026-05-07 20:05 | 51.15737 | -0.17694 | 209 ft | 20 kts | 257° |
| 2026-05-07 20:05 | 51.15707 | -0.17911 | 205 ft | 20 kts | 257° |
| 2026-05-07 20:05 | 51.15680 | -0.18105 | 207 ft | 16 kts | 258° |
| 2026-05-07 20:05 | 51.15657 | -0.18269 | 210 ft | 13 kts | 257° |
| 2026-05-07 20:06 | 51.15607 | -0.18352 | 206 ft | 12 kts | 182° |
| 2026-05-07 20:06 | 51.15520 | -0.18326 | 205 ft | 14 kts | 168° |
| 2026-05-07 20:06 | 51.15422 | -0.18292 | 210 ft | 15 kts | 167° |
| 2026-05-07 20:06 | 51.15319 | -0.18256 | 205 ft | 13 kts | 167° |
| 2026-05-07 20:07 | 51.15254 | -0.18233 | 205 ft | 9 kts | 167° |
| 2026-05-07 20:07 | 51.15191 | -0.18280 | 213 ft | 13 kts | 253° |
| 2026-05-07 20:07 | 51.15170 | -0.18446 | 211 ft | 20 kts | 257° |
| 2026-05-07 20:07 | 51.15135 | -0.18705 | 205 ft | 24 kts | 257° |
| 2026-05-07 20:08 | 51.15102 | -0.18942 | 208 ft | 18 kts | 257° |
| 2026-05-07 20:08 | 51.15076 | -0.19133 | 205 ft | 15 kts | 258° |
| 2026-05-07 20:08 | 51.15051 | -0.19260 | 216 ft | 11 kts | 224° |
| 2026-05-07 20:08 | 51.14983 | -0.19268 | 211 ft | 9 kts | 188° |
| 2026-05-07 20:09 | 51.14950 | -0.19382 | 211 ft | 17 kts | 258° |
| 2026-05-07 20:09 | 51.14919 | -0.19611 | 207 ft | 23 kts | 257° |
| 2026-05-07 20:09 | 51.14884 | -0.19861 | 213 ft | 24 kts | 257° |
| 2026-05-07 20:10 | 51.14808 | -0.20413 | 208 ft | 24 kts | 257° |
| 2026-05-07 20:10 | 51.14772 | -0.20665 | 204 ft | 23 kts | 258° |
| 2026-05-07 20:10 | 51.14742 | -0.20891 | 205 ft | 18 kts | 258° |
| 2026-05-07 20:10 | 51.14720 | -0.21052 | 209 ft | 12 kts | 257° |
| 2026-05-07 20:11 | 51.14711 | -0.21113 | 217 ft | 0 kts | 257° |
| 2026-05-07 20:13 | 51.14711 | -0.21114 | 214 ft | 1 kts | 257° |
| 2026-05-07 20:13 | 51.14708 | -0.21131 | 210 ft | 3 kts | 257° |
| 2026-05-07 20:13 | 51.14703 | -0.21170 | 205 ft | 5 kts | 258° |
| 2026-05-07 20:14 | 51.14698 | -0.21210 | 213 ft | 0 kts | 258° |
| 2026-05-07 20:19 | 51.14697 | -0.21212 | 212 ft | 1 kts | 258° |
| 2026-05-07 20:19 | 51.14687 | -0.21288 | 210 ft | 11 kts | 255° |
| 2026-05-07 20:19 | 51.14637 | -0.21337 | 205 ft | 6 kts | 167° |
| 2026-05-07 20:19 | 51.14625 | -0.21332 | 205 ft | 3 kts | 165° |
| 2026-05-07 20:20 | 51.14597 | -0.21319 | 215 ft | 5 kts | 163° |
| 2026-05-07 20:20 | 51.14542 | -0.21267 | 210 ft | 13 kts | 132° |
| 2026-05-07 20:20 | 51.14527 | -0.21125 | 213 ft | 11 kts | 78° |
| 2026-05-07 20:20 | 51.14529 | -0.21105 | 211 ft | 0 kts | 78° |
| 2026-05-07 20:21 | 51.14530 | -0.21104 | 211 ft | 1 kts | 78° |
| 2026-05-07 20:21 | 51.14558 | -0.20892 | 211 ft | 55 kts | 78° |
| 2026-05-07 20:21 | 51.14699 | -0.19875 | 214 ft | 130 kts | 77° |
| 2026-05-07 20:21 | 51.14936 | -0.18188 | 383 ft | 170 kts | 77° |
| 2026-05-07 20:22 | 51.15206 | -0.16358 | 1240 ft | 169 kts | 79° |
| 2026-05-07 20:22 | 51.15462 | -0.14483 | 1941 ft | 179 kts | 79° |
| 2026-05-07 20:22 | 51.15732 | -0.12464 | 2285 ft | 199 kts | 79° |
| 2026-05-07 20:22 | 51.16039 | -0.10188 | 2647 ft | 218 kts | 79° |
| 2026-05-07 20:23 | 51.16148 | -0.07771 | 3395 ft | 222 kts | 104° |
| 2026-05-07 20:23 | 51.15327 | -0.05693 | 4031 ft | 235 kts | 142° |
| 2026-05-07 20:23 | 51.13778 | -0.04539 | 4487 ft | 256 kts | 162° |
| 2026-05-07 20:23 | 51.12015 | -0.03886 | 5236 ft | 263 kts | 169° |
| 2026-05-07 20:24 | 51.10189 | -0.03394 | 6059 ft | 268 kts | 170° |
| 2026-05-07 20:24 | 51.08336 | -0.02845 | 6774 ft | 275 kts | 168° |
| 2026-05-07 20:24 | 51.06497 | -0.02137 | 7011 ft | 277 kts | 166° |
| 2026-05-07 20:24 | 51.04641 | -0.01314 | 7075 ft | 277 kts | 164° |
| 2026-05-07 20:25 | 51.02803 | -0.00447 | 7080 ft | 275 kts | 163° |
| 2026-05-07 20:25 | 51.00968 | 0.00436 | 7035 ft | 274 kts | 163° |
| 2026-05-07 20:25 | 50.99169 | 0.01304 | 7044 ft | 274 kts | 164° |
| 2026-05-07 20:25 | 50.97347 | 0.02175 | 7051 ft | 273 kts | 163° |
| 2026-05-07 20:26 | 50.95517 | 0.03047 | 7292 ft | 276 kts | 164° |
| 2026-05-07 20:26 | 50.93673 | 0.03923 | 8176 ft | 278 kts | 164° |
| 2026-05-07 20:26 | 50.91808 | 0.04805 | 8993 ft | 282 kts | 165° |
| 2026-05-07 20:26 | 50.89916 | 0.05697 | 9791 ft | 286 kts | 165° |
| 2026-05-07 20:27 | 50.87995 | 0.06601 | 10518 ft | 289 kts | 165° |
| 2026-05-07 20:27 | 50.86059 | 0.07513 | 11248 ft | 292 kts | 165° |
| 2026-05-07 20:27 | 50.84106 | 0.08429 | 12010 ft | 294 kts | 165° |
| 2026-05-07 20:27 | 50.82142 | 0.09351 | 12774 ft | 296 kts | 165° |
| 2026-05-07 20:28 | 50.80164 | 0.10279 | 13534 ft | 298 kts | 165° |
| 2026-05-07 20:28 | 50.78167 | 0.11211 | 14237 ft | 300 kts | 166° |
| 2026-05-07 20:28 | 50.76105 | 0.11735 | 14864 ft | 301 kts | 180° |
| 2026-05-07 20:28 | 50.73965 | 0.11477 | 15102 ft | 318 kts | 193° |
| 2026-05-07 20:29 | 50.71744 | 0.10651 | 15240 ft | 338 kts | 194° |
| 2026-05-07 20:29 | 50.69393 | 0.09773 | 15409 ft | 355 kts | 194° |
| 2026-05-07 20:29 | 50.66997 | 0.08891 | 15849 ft | 361 kts | 194° |
| 2026-05-07 20:29 | 50.64533 | 0.07997 | 16403 ft | 365 kts | 194° |
| 2026-05-07 20:30 | 50.62046 | 0.07105 | 16999 ft | 368 kts | 194° |
| 2026-05-07 20:30 | 50.59541 | 0.06206 | 17587 ft | 371 kts | 194° |
| 2026-05-07 20:30 | 50.57016 | 0.05296 | 18171 ft | 374 kts | 194° |
| 2026-05-07 20:30 | 50.54471 | 0.04375 | 18686 ft | 377 kts | 194° |
| 2026-05-07 20:31 | 50.51909 | 0.03449 | 19180 ft | 379 kts | 194° |
| 2026-05-07 20:31 | 50.49327 | 0.02521 | 19675 ft | 382 kts | 194° |
| 2026-05-07 20:31 | 50.46724 | 0.01586 | 20154 ft | 384 kts | 194° |
| 2026-05-07 20:31 | 50.44107 | 0.00648 | 20658 ft | 387 kts | 194° |
| 2026-05-07 20:32 | 50.41504 | -0.00282 | 21128 ft | 389 kts | 194° |
| 2026-05-07 20:32 | 50.38858 | -0.01230 | 21604 ft | 391 kts | 194° |
| 2026-05-07 20:32 | 50.36197 | -0.02185 | 22117 ft | 393 kts | 194° |
| 2026-05-07 20:32 | 50.33524 | -0.03142 | 22605 ft | 395 kts | 194° |
| 2026-05-07 20:33 | 50.30833 | -0.04105 | 23083 ft | 398 kts | 194° |
| 2026-05-07 20:33 | 50.29041 | -0.04741 | 23391 ft | 399 kts | 194° |
| 2026-05-07 20:33 | 50.26320 | -0.05705 | 23822 ft | 402 kts | 194° |
| 2026-05-07 20:33 | 50.23542 | -0.06372 | 24201 ft | 406 kts | 185° |
| 2026-05-07 20:34 | 50.20704 | -0.06252 | 24584 ft | 411 kts | 175° |
| 2026-05-07 20:34 | 50.17890 | -0.05319 | 24961 ft | 416 kts | 165° |
| 2026-05-07 20:34 | 50.15190 | -0.03620 | 25343 ft | 420 kts | 158° |
| 2026-05-07 20:34 | 50.12515 | -0.01745 | 25723 ft | 422 kts | 158° |
| 2026-05-07 20:35 | 50.09796 | 0.00004 | 26070 ft | 423 kts | 164° |
| 2026-05-07 20:35 | 50.06954 | 0.01212 | 26413 ft | 425 kts | 168° |
| 2026-05-07 20:35 | 50.04082 | 0.02337 | 26782 ft | 427 kts | 168° |
| 2026-05-07 20:35 | 50.01196 | 0.03469 | 27150 ft | 429 kts | 168° |
| 2026-05-07 20:36 | 49.98295 | 0.04609 | 27513 ft | 431 kts | 168° |
| 2026-05-07 20:36 | 49.95375 | 0.05754 | 27856 ft | 433 kts | 168° |
| 2026-05-07 20:36 | 49.92443 | 0.06904 | 28213 ft | 436 kts | 168° |
| 2026-05-07 20:36 | 49.89535 | 0.08047 | 28567 ft | 438 kts | 168° |
| 2026-05-07 20:37 | 49.86574 | 0.09211 | 28891 ft | 440 kts | 168° |
| 2026-05-07 20:37 | 49.83596 | 0.10384 | 29208 ft | 442 kts | 168° |
| 2026-05-07 20:37 | 49.80608 | 0.11556 | 29515 ft | 444 kts | 168° |
| 2026-05-07 20:37 | 49.77599 | 0.12729 | 29808 ft | 446 kts | 168° |
| 2026-05-07 20:38 | 49.74582 | 0.13902 | 30079 ft | 448 kts | 168° |
| 2026-05-07 20:38 | 49.71556 | 0.15076 | 30361 ft | 448 kts | 168° |
| 2026-05-07 20:38 | 49.68532 | 0.16253 | 30689 ft | 447 kts | 168° |
| 2026-05-07 20:38 | 49.65511 | 0.17438 | 31041 ft | 446 kts | 168° |
| 2026-05-07 20:39 | 49.62505 | 0.18644 | 31384 ft | 445 kts | 168° |
| 2026-05-07 20:39 | 49.59509 | 0.19860 | 31729 ft | 444 kts | 168° |
| 2026-05-07 20:39 | 49.56523 | 0.21076 | 32067 ft | 443 kts | 167° |
| 2026-05-07 20:39 | 49.53577 | 0.22275 | 32404 ft | 442 kts | 167° |
| 2026-05-07 20:40 | 49.50604 | 0.23481 | 32742 ft | 441 kts | 168° |
| 2026-05-07 20:40 | 49.47636 | 0.24677 | 33021 ft | 441 kts | 168° |
| 2026-05-07 20:40 | 49.44692 | 0.25856 | 33057 ft | 434 kts | 168° |
| 2026-05-07 20:41 | 49.38886 | 0.28163 | 33054 ft | 429 kts | 168° |
| 2026-05-07 20:41 | 49.33106 | 0.30455 | 33055 ft | 429 kts | 168° |
| 2026-05-07 20:42 | 49.27335 | 0.32799 | 33053 ft | 429 kts | 167° |
| 2026-05-07 20:42 | 49.21583 | 0.35241 | 33036 ft | 429 kts | 167° |
| 2026-05-07 20:43 | 49.15834 | 0.37694 | 33038 ft | 429 kts | 167° |
| 2026-05-07 20:43 | 49.10080 | 0.40122 | 33042 ft | 429 kts | 167° |
| 2026-05-07 20:44 | 49.04323 | 0.42525 | 33038 ft | 429 kts | 167° |
| 2026-05-07 20:44 | 48.98589 | 0.44903 | 33028 ft | 429 kts | 168° |
| 2026-05-07 20:45 | 48.92826 | 0.47300 | 33035 ft | 429 kts | 167° |
| 2026-05-07 20:45 | 48.87057 | 0.49708 | 33036 ft | 430 kts | 167° |
| 2026-05-07 20:46 | 48.81289 | 0.52105 | 33045 ft | 430 kts | 167° |
| 2026-05-07 20:46 | 48.75508 | 0.54474 | 33045 ft | 430 kts | 168° |
| 2026-05-07 20:47 | 48.69717 | 0.56729 | 33052 ft | 430 kts | 168° |
| 2026-05-07 20:47 | 48.63918 | 0.58965 | 33038 ft | 430 kts | 168° |
| 2026-05-07 20:48 | 48.58157 | 0.61205 | 33049 ft | 430 kts | 168° |
| 2026-05-07 20:48 | 48.52360 | 0.63476 | 33048 ft | 430 kts | 168° |
| 2026-05-07 20:49 | 48.46579 | 0.65794 | 33046 ft | 430 kts | 168° |
| 2026-05-07 20:49 | 48.40806 | 0.68162 | 33047 ft | 430 kts | 168° |
| 2026-05-07 20:50 | 48.35035 | 0.70515 | 33046 ft | 430 kts | 168° |
| 2026-05-07 20:50 | 48.29267 | 0.72845 | 33052 ft | 429 kts | 168° |
| 2026-05-07 20:51 | 48.23495 | 0.75159 | 33052 ft | 429 kts | 168° |
| 2026-05-07 20:51 | 48.17721 | 0.77450 | 33042 ft | 429 kts | 168° |
| 2026-05-07 20:52 | 48.11950 | 0.79707 | 33047 ft | 428 kts | 168° |
| 2026-05-07 20:52 | 48.06215 | 0.81935 | 33047 ft | 428 kts | 168° |
| 2026-05-07 20:53 | 48.00451 | 0.84194 | 33041 ft | 428 kts | 168° |
| 2026-05-07 20:53 | 47.94693 | 0.86454 | 33030 ft | 428 kts | 168° |
| 2026-05-07 20:54 | 47.88929 | 0.88703 | 33034 ft | 428 kts | 169° |
| 2026-05-07 20:54 | 47.83156 | 0.90938 | 33035 ft | 428 kts | 169° |
| 2026-05-07 20:55 | 47.77426 | 0.93153 | 33019 ft | 428 kts | 168° |
| 2026-05-07 20:55 | 47.71660 | 0.95395 | 33027 ft | 428 kts | 168° |
| 2026-05-07 20:56 | 47.65894 | 0.97626 | 33027 ft | 428 kts | 169° |
| 2026-05-07 20:56 | 47.60134 | 0.99839 | 33024 ft | 428 kts | 169° |
| 2026-05-07 20:57 | 47.54364 | 1.02051 | 33014 ft | 428 kts | 169° |
| 2026-05-07 20:57 | 47.48601 | 1.04259 | 33019 ft | 428 kts | 169° |
| 2026-05-07 20:58 | 47.42849 | 1.06210 | 33018 ft | 424 kts | 176° |
| 2026-05-07 20:58 | 47.36969 | 1.06318 | 33006 ft | 421 kts | 184° |
| 2026-05-07 20:59 | 47.31107 | 1.06168 | 33009 ft | 422 kts | 184° |
| 2026-05-07 20:59 | 47.25239 | 1.06030 | 33010 ft | 422 kts | 184° |
| 2026-05-07 21:00 | 47.19404 | 1.05897 | 33014 ft | 422 kts | 184° |
| 2026-05-07 21:00 | 47.13530 | 1.05764 | 33014 ft | 421 kts | 183° |
| 2026-05-07 21:01 | 47.07660 | 1.05630 | 33017 ft | 421 kts | 183° |
| 2026-05-07 21:01 | 47.01800 | 1.05489 | 33016 ft | 421 kts | 184° |
| 2026-05-07 21:02 | 46.95946 | 1.05259 | 33011 ft | 421 kts | 184° |
| 2026-05-07 21:02 | 46.90098 | 1.04975 | 33015 ft | 420 kts | 184° |
| 2026-05-07 21:03 | 46.84286 | 1.04712 | 33016 ft | 420 kts | 184° |
| 2026-05-07 21:03 | 46.78437 | 1.04472 | 33017 ft | 420 kts | 184° |
| 2026-05-07 21:04 | 46.72590 | 1.04229 | 33014 ft | 420 kts | 184° |
| 2026-05-07 21:04 | 46.66746 | 1.03975 | 33013 ft | 420 kts | 184° |
| 2026-05-07 21:05 | 46.60904 | 1.03731 | 33013 ft | 420 kts | 184° |
| 2026-05-07 21:05 | 46.55066 | 1.03485 | 32999 ft | 420 kts | 184° |
| 2026-05-07 21:06 | 46.49219 | 1.03255 | 33005 ft | 420 kts | 183° |
| 2026-05-07 21:06 | 46.43386 | 1.03174 | 33022 ft | 418 kts | 182° |
| 2026-05-07 21:07 | 46.37619 | 1.03155 | 33023 ft | 415 kts | 182° |
| 2026-05-07 21:07 | 46.31853 | 1.03121 | 33011 ft | 414 kts | 182° |
| 2026-05-07 21:08 | 46.26095 | 1.03054 | 33014 ft | 413 kts | 183° |
| 2026-05-07 21:08 | 46.20354 | 1.02975 | 33008 ft | 412 kts | 182° |
| 2026-05-07 21:09 | 46.14616 | 1.02916 | 33001 ft | 412 kts | 182° |
| 2026-05-07 21:09 | 46.08870 | 1.02864 | 33003 ft | 412 kts | 182° |
| 2026-05-07 21:10 | 46.03136 | 1.02803 | 33008 ft | 412 kts | 182° |
| 2026-05-07 21:10 | 45.97439 | 1.02732 | 33012 ft | 412 kts | 182° |
| 2026-05-07 21:11 | 45.91705 | 1.02672 | 33013 ft | 412 kts | 182° |
| 2026-05-07 21:11 | 45.83318 | 1.01082 | 32512 ft | 403 kts | 205° |
| 2026-05-07 21:12 | 45.80883 | 0.99180 | 32140 ft | 396 kts | 216° |
| 2026-05-07 21:12 | 45.78783 | 0.96672 | 31655 ft | 391 kts | 226° |
| 2026-05-07 21:12 | 45.77066 | 0.93678 | 31173 ft | 386 kts | 234° |
| 2026-05-07 21:12 | 45.75502 | 0.90580 | 30695 ft | 382 kts | 234° |
| 2026-05-07 21:13 | 45.73950 | 0.87521 | 30222 ft | 378 kts | 234° |
| 2026-05-07 21:13 | 45.72412 | 0.84498 | 29720 ft | 374 kts | 234° |
| 2026-05-07 21:13 | 45.70908 | 0.81550 | 29261 ft | 369 kts | 234° |
| 2026-05-07 21:13 | 45.69408 | 0.78612 | 28829 ft | 363 kts | 234° |
| 2026-05-07 21:14 | 45.67928 | 0.75714 | 28392 ft | 358 kts | 234° |
| 2026-05-07 21:14 | 45.66465 | 0.72850 | 27973 ft | 354 kts | 234° |
| 2026-05-07 21:14 | 45.65018 | 0.70027 | 27558 ft | 349 kts | 233° |
| 2026-05-07 21:14 | 45.63591 | 0.67252 | 27160 ft | 344 kts | 233° |
| 2026-05-07 21:15 | 45.62182 | 0.64513 | 26767 ft | 340 kts | 233° |
| 2026-05-07 21:15 | 45.60787 | 0.61801 | 26387 ft | 338 kts | 233° |
| 2026-05-07 21:15 | 45.59398 | 0.59105 | 26007 ft | 336 kts | 233° |
| 2026-05-07 21:15 | 45.58015 | 0.56423 | 25627 ft | 335 kts | 233° |
| 2026-05-07 21:16 | 45.56638 | 0.53753 | 25258 ft | 333 kts | 233° |
| 2026-05-07 21:16 | 45.55267 | 0.51093 | 24895 ft | 331 kts | 233° |
| 2026-05-07 21:16 | 45.53905 | 0.48451 | 24519 ft | 330 kts | 233° |
| 2026-05-07 21:16 | 45.52551 | 0.45827 | 24150 ft | 328 kts | 233° |
| 2026-05-07 21:17 | 45.51201 | 0.43214 | 23775 ft | 326 kts | 233° |
| 2026-05-07 21:17 | 45.49858 | 0.40618 | 23361 ft | 324 kts | 233° |
| 2026-05-07 21:17 | 45.48521 | 0.38039 | 22970 ft | 323 kts | 233° |
| 2026-05-07 21:17 | 45.47188 | 0.35474 | 22571 ft | 321 kts | 233° |
| 2026-05-07 21:18 | 45.45863 | 0.32924 | 22169 ft | 319 kts | 233° |
| 2026-05-07 21:18 | 45.44561 | 0.30418 | 21779 ft | 318 kts | 233° |
| 2026-05-07 21:18 | 45.43248 | 0.27890 | 21354 ft | 316 kts | 233° |
| 2026-05-07 21:18 | 45.41942 | 0.25380 | 20973 ft | 315 kts | 233° |
| 2026-05-07 21:19 | 45.40638 | 0.22884 | 20552 ft | 313 kts | 233° |
| 2026-05-07 21:19 | 45.39342 | 0.20406 | 20163 ft | 311 kts | 233° |
| 2026-05-07 21:19 | 45.38050 | 0.17938 | 19754 ft | 310 kts | 233° |
| 2026-05-07 21:19 | 45.36768 | 0.15485 | 19354 ft | 308 kts | 233° |
| 2026-05-07 21:20 | 45.35493 | 0.13047 | 18957 ft | 307 kts | 233° |
| 2026-05-07 21:20 | 45.34217 | 0.10578 | 18610 ft | 319 kts | 234° |
| 2026-05-07 21:20 | 45.32893 | 0.07986 | 18231 ft | 327 kts | 234° |
| 2026-05-07 21:20 | 45.31555 | 0.05363 | 17832 ft | 328 kts | 234° |
| 2026-05-07 21:21 | 45.30214 | 0.02748 | 17453 ft | 327 kts | 234° |
| 2026-05-07 21:21 | 45.28876 | 0.00140 | 17080 ft | 325 kts | 234° |
| 2026-05-07 21:21 | 45.27542 | -0.02453 | 16714 ft | 324 kts | 234° |
| 2026-05-07 21:21 | 45.26216 | -0.05028 | 16347 ft | 322 kts | 234° |
| 2026-05-07 21:22 | 45.24910 | -0.07562 | 15987 ft | 321 kts | 234° |
| 2026-05-07 21:22 | 45.23594 | -0.10114 | 15625 ft | 320 kts | 234° |
| 2026-05-07 21:22 | 45.22282 | -0.12655 | 15245 ft | 318 kts | 234° |
| 2026-05-07 21:22 | 45.20976 | -0.15182 | 14902 ft | 317 kts | 234° |
| 2026-05-07 21:23 | 45.19674 | -0.17699 | 14537 ft | 316 kts | 234° |
| 2026-05-07 21:23 | 45.18381 | -0.20204 | 14180 ft | 314 kts | 234° |
| 2026-05-07 21:23 | 45.17090 | -0.22690 | 13830 ft | 313 kts | 232° |
| 2026-05-07 21:23 | 45.15621 | -0.24949 | 13434 ft | 312 kts | 226° |
| 2026-05-07 21:24 | 45.14102 | -0.27131 | 13074 ft | 310 kts | 226° |
| 2026-05-07 21:24 | 45.12587 | -0.29307 | 12709 ft | 309 kts | 226° |
| 2026-05-07 21:24 | 45.11200 | -0.31617 | 12348 ft | 307 kts | 238° |
| 2026-05-07 21:24 | 45.10290 | -0.34335 | 11996 ft | 306 kts | 253° |
| 2026-05-07 21:25 | 45.09988 | -0.36283 | 11756 ft | 306 kts | 263° |
| 2026-05-07 21:25 | 45.09999 | -0.39286 | 11402 ft | 305 kts | 276° |
| 2026-05-07 21:25 | 45.10261 | -0.42264 | 11045 ft | 305 kts | 276° |
| 2026-05-07 21:25 | 45.10514 | -0.45241 | 10689 ft | 304 kts | 276° |
| 2026-05-07 21:26 | 45.10759 | -0.48210 | 10338 ft | 303 kts | 276° |
| 2026-05-07 21:26 | 45.11003 | -0.51159 | 10027 ft | 298 kts | 276° |
| 2026-05-07 21:26 | 45.11240 | -0.54021 | 9786 ft | 289 kts | 276° |
| 2026-05-07 21:26 | 45.11268 | -0.56815 | 9592 ft | 283 kts | 262° |
| 2026-05-07 21:27 | 45.10733 | -0.59477 | 9261 ft | 281 kts | 244° |
| 2026-05-07 21:27 | 45.09686 | -0.61757 | 8879 ft | 280 kts | 228° |
| 2026-05-07 21:27 | 45.08293 | -0.63668 | 8521 ft | 279 kts | 223° |
| 2026-05-07 21:27 | 45.06885 | -0.65545 | 8141 ft | 278 kts | 223° |
| 2026-05-07 21:28 | 45.05482 | -0.67421 | 7768 ft | 276 kts | 224° |
| 2026-05-07 21:28 | 45.04087 | -0.69286 | 7400 ft | 275 kts | 223° |
| 2026-05-07 21:28 | 45.02698 | -0.71141 | 7017 ft | 274 kts | 223° |
| 2026-05-07 21:28 | 45.01328 | -0.72967 | 6815 ft | 265 kts | 223° |
| 2026-05-07 21:29 | 45.00010 | -0.74724 | 6698 ft | 254 kts | 223° |
| 2026-05-07 21:29 | 44.98745 | -0.76405 | 6533 ft | 246 kts | 222° |
| 2026-05-07 21:29 | 44.97363 | -0.77755 | 6360 ft | 239 kts | 210° |
| 2026-05-07 21:29 | 44.95919 | -0.78933 | 6186 ft | 239 kts | 210° |
| 2026-05-07 21:30 | 44.94485 | -0.80105 | 5951 ft | 238 kts | 210° |
| 2026-05-07 21:30 | 44.93058 | -0.81272 | 5694 ft | 237 kts | 210° |
| 2026-05-07 21:30 | 44.91644 | -0.82433 | 5433 ft | 233 kts | 210° |
| 2026-05-07 21:30 | 44.90259 | -0.83570 | 5188 ft | 227 kts | 210° |
| 2026-05-07 21:31 | 44.88903 | -0.84681 | 4952 ft | 223 kts | 209° |
| 2026-05-07 21:31 | 44.87493 | -0.85470 | 4706 ft | 221 kts | 192° |
| 2026-05-07 21:31 | 44.85977 | -0.85954 | 4457 ft | 220 kts | 192° |
| 2026-05-07 21:31 | 44.84500 | -0.86431 | 4219 ft | 220 kts | 192° |
| 2026-05-07 21:32 | 44.83012 | -0.86916 | 3979 ft | 219 kts | 192° |
| 2026-05-07 21:32 | 44.81527 | -0.87401 | 3659 ft | 217 kts | 192° |
| 2026-05-07 21:32 | 44.80048 | -0.87653 | 3327 ft | 213 kts | 174° |
| 2026-05-07 21:32 | 44.78650 | -0.87110 | 3002 ft | 208 kts | 152° |
| 2026-05-07 21:33 | 44.77532 | -0.85880 | 2702 ft | 202 kts | 130° |
| 2026-05-07 21:33 | 44.76850 | -0.84215 | 2413 ft | 193 kts | 110° |
| 2026-05-07 21:33 | 44.76644 | -0.82425 | 2109 ft | 179 kts | 90° |
| 2026-05-07 21:33 | 44.76864 | -0.80761 | 1847 ft | 168 kts | 72° |
| 2026-05-07 21:34 | 44.77413 | -0.79365 | 1615 ft | 158 kts | 55° |
| 2026-05-07 21:34 | 44.78137 | -0.78294 | 1377 ft | 145 kts | 48° |
| 2026-05-07 21:34 | 44.78835 | -0.77305 | 1159 ft | 140 kts | 48° |
| 2026-05-07 21:34 | 44.79515 | -0.76337 | 949 ft | 138 kts | 47° |
| 2026-05-07 21:35 | 44.80192 | -0.75372 | 746 ft | 138 kts | 46° |
| 2026-05-07 21:35 | 44.80859 | -0.74433 | 557 ft | 137 kts | 46° |
| 2026-05-07 21:35 | 44.81522 | -0.73485 | 367 ft | 135 kts | 47° |
| 2026-05-07 21:35 | 44.82165 | -0.72524 | 176 ft | 133 kts | 45° |
| 2026-05-07 21:36 | 44.82725 | -0.71738 | 167 ft | 83 kts | 45° |
| 2026-05-07 21:36 | 44.82968 | -0.71386 | 164 ft | 26 kts | 46° |
| 2026-05-07 21:36 | 44.83001 | -0.71210 | 163 ft | 20 kts | 112° |
| 2026-05-07 21:36 | 44.82970 | -0.71071 | 164 ft | 12 kts | 106° |
| 2026-05-07 21:37 | 44.82964 | -0.70950 | 165 ft | 13 kts | 62° |
| 2026-05-07 21:37 | 44.83033 | -0.70846 | 165 ft | 16 kts | 46° |
| 2026-05-07 21:37 | 44.83115 | -0.70727 | 164 ft | 18 kts | 46° |
| 2026-05-07 21:37 | 44.83209 | -0.70593 | 163 ft | 20 kts | 45° |
| 2026-05-07 21:38 | 44.83314 | -0.70444 | 163 ft | 23 kts | 45° |
| 2026-05-07 21:38 | 44.83412 | -0.70304 | 162 ft | 14 kts | 45° |
| 2026-05-07 21:38 | 44.83470 | -0.70221 | 162 ft | 8 kts | 45° |
| 2026-05-07 21:38 | 44.83461 | -0.70151 | 162 ft | 9 kts | 131° |
| 2026-05-07 21:39 | 44.83420 | -0.70092 | 162 ft | 3 kts | 135° |
| 2026-05-07 21:39 | 44.83413 | -0.70082 | 162 ft | 0 kts | 135° |
| 2026-05-07 21:41 | 44.83320 | -0.70212 | 163 ft | 0 kts | 135° |